Time;durP1;ratioP1;P1;durP2;ratioP2;P2;SDS_P1;SDS_P2;PMS_P1;PMS_P2;Temp;Humidity;BMP_temperature;BMP_pressure;BME280_temperature;BME280_humidity;BME280_pressure;Samples;Min_cycle;Max_cycle;Signal;HPM_P1;HPM_P2
2021/04/13 00:02:15;;;;;;;5.40;5.00;;;;;;;;;;4992167;28;20466;-64
2021/04/13 00:04:42;;;;;;;4.77;4.47;;;;;;;;;;4990165;28;20549;-66
2021/04/13 00:07:09;;;;;;;5.50;4.97;;;;;;;;;;4990315;28;20465;-66
2021/04/13 00:09:36;;;;;;;7.13;5.33;;;;;;;;;;5010502;28;20473;-66
2021/04/13 00:12:07;;;;;;;5.00;4.50;;;;;;;;;;5011178;28;20453;-65
2021/04/13 00:14:35;;;;;;;7.37;5.10;;;;;;;;;;5003729;28;20462;-67
2021/04/13 00:17:04;;;;;;;5.80;5.33;;;;;;;;;;5008380;28;20892;-66
2021/04/13 00:19:35;;;;;;;6.20;5.30;;;;;;;;;;5000331;28;20544;-66
2021/04/13 00:22:02;;;;;;;6.00;5.27;;;;;;;;;;4995414;28;20450;-66
2021/04/13 00:24:29;;;;;;;5.63;5.00;;;;;;;;;;5001433;28;20454;-65
2021/04/13 00:26:57;;;;;;;7.50;6.23;;;;;;;;;;4992970;28;20451;-66
2021/04/13 00:29:26;;;;;;;7.00;5.70;;;;;;;;;;4998061;28;20541;-68
2021/04/13 00:31:56;;;;;;;7.70;6.20;;;;;;;;;;4992201;28;20501;-67
2021/04/13 00:34:24;;;;;;;5.90;5.50;;;;;;;;;;4996329;28;20875;-67
2021/04/13 00:36:51;;;;;;;5.80;5.30;;;;;;;;;;5005681;28;21074;-67
2021/04/13 00:39:21;;;;;;;5.97;5.57;;;;;;;;;;5012871;28;20465;-66
2021/04/13 00:41:50;;;;;;;6.13;5.63;;;;;;;;;;5013935;28;20450;-66
2021/04/13 00:44:18;;;;;;;6.70;6.10;;;;;;;;;;5012793;28;20485;-67
2021/04/13 00:46:48;;;;;;;5.73;5.23;;;;;;;;;;4998620;28;20450;-67
2021/04/13 00:49:15;;;;;;;6.20;5.63;;;;;;;;;;4995210;28;20969;-67
2021/04/13 00:51:44;;;;;;;6.03;5.63;;;;;;;;;;4990638;28;20488;-67
2021/04/13 00:54:12;;;;;;;6.90;6.23;;;;;;;;;;5009967;28;20898;-67
2021/04/13 00:56:39;;;;;;;6.47;5.93;;;;;;;;;;4994191;28;21043;-67
2021/04/13 00:59:08;;;;;;;6.50;5.90;;;;;;;;;;4997312;28;20592;-67
2021/04/13 01:01:36;;;;;;;7.50;6.80;;;;;;;;;;5003316;28;20465;-66
2021/04/13 01:04:10;;;;;;;7.17;6.53;;;;;;;;;;5006205;28;21033;-67
2021/04/13 01:06:36;;;;;;;7.17;5.70;;;;;;;;;;4993605;28;20469;-65
2021/04/13 01:09:09;;;;;;;6.37;5.87;;;;;;;;;;5009909;28;20472;-66
2021/04/13 01:11:39;;;;;;;6.50;5.90;;;;;;;;;;5011570;28;21003;-66
2021/04/13 01:14:07;;;;;;;6.83;6.17;;;;;;;;;;5001476;28;21021;-66
2021/04/13 01:16:34;;;;;;;7.73;7.03;;;;;;;;;;5007830;28;20512;-66
2021/04/13 01:19:04;;;;;;;6.67;6.17;;;;;;;;;;4999832;28;20481;-66
2021/04/13 01:21:38;;;;;;;6.73;6.23;;;;;;;;;;5012617;28;20472;-66
2021/04/13 01:24:10;;;;;;;7.00;6.40;;;;;;;;;;5012693;28;20478;-67
2021/04/13 01:26:40;;;;;;;7.00;6.40;;;;;;;;;;5003251;28;20461;-67
2021/04/13 01:29:06;;;;;;;6.80;6.20;;;;;;;;;;4994814;28;20876;-66
2021/04/13 01:31:46;;;;;;;6.57;6.00;;;;;;;;;;4993726;28;20949;-66
2021/04/13 01:34:15;;;;;;;8.20;6.30;;;;;;;;;;5005393;28;20995;-66
2021/04/13 01:36:46;;;;;;;7.00;6.50;;;;;;;;;;5001780;28;20493;-67
2021/04/13 01:39:16;;;;;;;6.63;6.13;;;;;;;;;;4997610;28;20458;-68
2021/04/13 01:41:57;;;;;;;7.57;6.87;;;;;;;;;;5001169;28;20463;-67
2021/04/13 01:44:26;;;;;;;7.77;7.17;;;;;;;;;;4996397;28;20489;-67
2021/04/13 01:46:53;;;;;;;7.23;6.57;;;;;;;;;;5012343;28;20453;-68
2021/04/13 01:49:20;;;;;;;6.87;6.27;;;;;;;;;;5004183;28;20837;-67
2021/04/13 01:51:47;;;;;;;7.43;6.83;;;;;;;;;;4994468;28;20469;-65
2021/04/13 01:54:16;;;;;;;6.77;6.07;;;;;;;;;;5011314;28;20841;-66
2021/04/13 01:56:54;;;;;;;7.10;6.50;;;;;;;;;;5013142;28;20492;-66
2021/04/13 01:59:23;;;;;;;7.67;6.87;;;;;;;;;;5005027;28;20469;-66
2021/04/13 02:01:54;;;;;;;6.93;6.23;;;;;;;;;;5006999;28;20465;-65
2021/04/13 02:04:23;;;;;;;7.13;6.53;;;;;;;;;;4999713;28;20494;-66
2021/04/13 02:06:56;;;;;;;10.93;6.70;;;;;;;;;;4993689;28;20553;-66
2021/04/13 02:09:28;;;;;;;7.23;6.63;;;;;;;;;;5008410;28;20541;-66
2021/04/13 02:11:56;;;;;;;8.93;6.60;;;;;;;;;;5011117;28;20978;-66
2021/04/13 02:14:25;;;;;;;13.40;7.00;;;;;;;;;;5005941;28;20498;-67
2021/04/13 02:16:53;;;;;;;7.53;6.30;;;;;;;;;;4993497;28;20482;-65
2021/04/13 02:19:20;;;;;;;10.20;7.07;;;;;;;;;;5005857;28;20468;-65
2021/04/13 02:21:48;;;;;;;6.70;6.10;;;;;;;;;;5012628;28;20464;-65
2021/04/13 02:24:16;;;;;;;7.13;6.43;;;;;;;;;;5008782;28;20496;-65
2021/04/13 02:26:52;;;;;;;8.90;6.90;;;;;;;;;;5012760;28;20499;-65
2021/04/13 02:29:19;;;;;;;9.17;6.40;;;;;;;;;;5004921;28;20473;-66
2021/04/13 02:31:49;;;;;;;6.67;6.07;;;;;;;;;;5012985;28;20553;-65
2021/04/13 02:34:17;;;;;;;7.50;6.73;;;;;;;;;;5001490;28;20642;-65
2021/04/13 02:36:46;;;;;;;6.80;6.20;;;;;;;;;;5012404;28;20512;-65
2021/04/13 02:39:14;;;;;;;7.07;6.00;;;;;;;;;;4999041;28;20466;-65
2021/04/13 02:41:47;;;;;;;6.23;5.30;;;;;;;;;;5004474;28;20558;-64
2021/04/13 02:44:17;;;;;;;7.83;7.00;;;;;;;;;;4993429;28;20474;-65
2021/04/13 02:46:43;;;;;;;7.57;6.87;;;;;;;;;;5001983;28;20469;-64
2021/04/13 02:49:12;;;;;;;7.80;6.20;;;;;;;;;;5003926;28;20469;-66
2021/04/13 02:51:41;;;;;;;7.37;6.77;;;;;;;;;;4998894;28;20516;-65
2021/04/13 02:54:13;;;;;;;6.73;6.13;;;;;;;;;;4995343;28;20470;-65
2021/04/13 02:56:42;;;;;;;8.63;5.87;;;;;;;;;;5008495;28;20871;-65
2021/04/13 02:59:19;;;;;;;10.27;6.20;;;;;;;;;;4989763;28;20470;-65
2021/04/13 03:01:49;;;;;;;5.87;5.23;;;;;;;;;;5000114;28;20457;-65
2021/04/13 03:04:17;;;;;;;6.30;5.70;;;;;;;;;;4995458;28;20501;-65
2021/04/13 03:06:46;;;;;;;6.60;5.97;;;;;;;;;;4995616;28;20962;-65
2021/04/13 03:09:13;;;;;;;6.60;5.77;;;;;;;;;;5007005;28;20846;-65
2021/04/13 03:11:45;;;;;;;7.00;6.47;;;;;;;;;;5010143;28;20827;-65
2021/04/13 03:14:13;;;;;;;7.13;6.30;;;;;;;;;;5001797;28;20483;-65
2021/04/13 03:16:43;;;;;;;8.60;6.33;;;;;;;;;;4992358;28;20585;-65
2021/04/13 03:19:11;;;;;;;7.20;6.30;;;;;;;;;;4995673;28;20465;-65
2021/04/13 03:21:41;;;;;;;7.77;6.00;;;;;;;;;;5012039;28;20461;-64
2021/04/13 03:24:09;;;;;;;6.40;5.80;;;;;;;;;;5005306;28;20482;-65
2021/04/13 03:26:37;;;;;;;6.77;6.17;;;;;;;;;;4972667;28;20462;-65
2021/04/13 03:29:05;;;;;;;7.50;6.63;;;;;;;;;;4997870;28;20474;-65
2021/04/13 03:31:32;;;;;;;9.13;6.90;;;;;;;;;;4992502;28;20461;-64
2021/04/13 03:34:00;;;;;;;7.10;6.47;;;;;;;;;;4997944;28;20487;-64
2021/04/13 03:36:27;;;;;;;6.93;6.33;;;;;;;;;;5004862;28;20485;-65
2021/04/13 03:38:55;;;;;;;7.30;6.60;;;;;;;;;;5005377;28;20980;-65
2021/04/13 03:41:22;;;;;;;9.63;7.37;;;;;;;;;;4995535;28;21014;-65
2021/04/13 03:43:50;;;;;;;7.63;6.10;;;;;;;;;;5010345;28;20481;-65
2021/04/13 03:46:17;;;;;;;7.37;6.60;;;;;;;;;;5011733;28;20441;-64
2021/04/13 03:48:48;;;;;;;6.90;6.23;;;;;;;;;;5005909;28;20472;-65
2021/04/13 03:51:16;;;;;;;8.40;6.20;;;;;;;;;;5011934;28;20434;-65
2021/04/13 03:53:44;;;;;;;7.47;6.77;;;;;;;;;;4996250;28;20486;-65
2021/04/13 03:56:12;;;;;;;8.43;7.47;;;;;;;;;;4991862;28;20848;-65
2021/04/13 03:58:40;;;;;;;7.73;6.80;;;;;;;;;;5000607;28;21092;-65
2021/04/13 04:01:09;;;;;;;8.23;7.53;;;;;;;;;;5009301;28;20460;-65
2021/04/13 04:03:39;;;;;;;7.63;6.90;;;;;;;;;;5014903;23;20494;-62
2021/04/13 04:06:06;;;;;;;10.10;8.20;;;;;;;;;;4996973;28;20461;-62
2021/04/13 04:08:39;;;;;;;9.80;8.87;;;;;;;;;;4990687;28;20948;-62
2021/04/13 04:11:06;;;;;;;8.97;8.20;;;;;;;;;;4997131;28;20516;-62
2021/04/13 04:13:35;;;;;;;10.30;9.23;;;;;;;;;;5004323;28;20482;-62
2021/04/13 04:16:06;;;;;;;10.33;9.27;;;;;;;;;;5007844;28;20902;-62
2021/04/13 04:18:35;;;;;;;9.50;8.60;;;;;;;;;;5005746;28;20517;-62
2021/04/13 04:21:13;;;;;;;10.07;9.07;;;;;;;;;;4994542;28;20449;-63
2021/04/13 04:23:40;;;;;;;10.07;9.27;;;;;;;;;;4993305;28;20545;-63
2021/04/13 04:26:07;;;;;;;10.37;8.90;;;;;;;;;;5012789;28;20446;-62
2021/04/13 04:28:35;;;;;;;9.40;8.60;;;;;;;;;;4999498;28;20461;-63
2021/04/13 04:31:35;;;;;;;11.10;9.97;;;;;;;;;;4981970;28;20454;-62
2021/04/13 04:34:22;;;;;;;10.43;8.93;;;;;;;;;;4909517;29;20862;-62
2021/04/13 04:36:51;;;;;;;10.30;9.30;;;;;;;;;;4910875;29;20489;-62
2021/04/13 04:39:25;;;;;;;10.10;9.10;;;;;;;;;;4946280;28;20494;-63
2021/04/13 04:41:52;;;;;;;10.47;8.60;;;;;;;;;;4995186;28;20986;-62
2021/04/13 04:44:23;;;;;;;9.27;8.47;;;;;;;;;;5001926;28;20522;-62
2021/04/13 04:46:50;;;;;;;9.20;8.20;;;;;;;;;;4996569;28;20465;-63
2021/04/13 04:49:18;;;;;;;8.83;7.77;;;;;;;;;;4994759;28;20476;-62
2021/04/13 04:51:48;;;;;;;8.80;7.90;;;;;;;;;;4994082;28;20466;-62
2021/04/13 04:54:15;;;;;;;10.30;7.83;;;;;;;;;;4991942;28;20517;-62
2021/04/13 04:56:42;;;;;;;8.77;7.97;;;;;;;;;;4980394;28;20485;-62
2021/04/13 04:59:09;;;;;;;8.80;8.00;;;;;;;;;;5003564;28;20469;-62
2021/04/13 05:01:36;;;;;;;9.00;8.10;;;;;;;;;;5004164;28;20466;-62
2021/04/13 05:04:02;;;;;;;8.70;7.63;;;;;;;;;;4994127;28;20478;-63
2021/04/13 05:06:29;;;;;;;7.90;7.30;;;;;;;;;;4996724;28;20462;-63
2021/04/13 05:08:55;;;;;;;7.33;6.63;;;;;;;;;;4979014;28;20865;-62
2021/04/13 05:11:23;;;;;;;7.73;7.03;;;;;;;;;;4985789;28;20469;-62
2021/04/13 05:13:50;;;;;;;7.70;6.40;;;;;;;;;;5000790;28;20985;-62
2021/04/13 05:16:17;;;;;;;11.13;7.70;;;;;;;;;;4984819;28;20877;-62
2021/04/13 05:18:43;;;;;;;7.77;7.03;;;;;;;;;;4988981;28;20521;-62
2021/04/13 05:21:10;;;;;;;8.70;7.90;;;;;;;;;;5005796;28;20501;-62
2021/04/13 05:23:36;;;;;;;8.37;7.07;;;;;;;;;;4993974;28;20471;-62
2021/04/13 05:26:03;;;;;;;9.13;7.97;;;;;;;;;;4985572;28;20451;-62
2021/04/13 05:28:31;;;;;;;9.57;7.73;;;;;;;;;;4975170;28;20498;-63
2021/04/13 05:30:58;;;;;;;9.03;8.23;;;;;;;;;;4996919;28;21020;-63
2021/04/13 05:33:26;;;;;;;10.83;8.03;;;;;;;;;;5006551;28;20563;-62
2021/04/13 05:35:52;;;;;;;7.33;3.40;;;;;;;;;;4991287;28;20463;-63
2021/04/13 05:38:20;;;;;;;7.93;3.57;;;;;;;;;;5006251;28;20477;-63
2021/04/13 05:40:47;;;;;;;3.60;2.90;;;;;;;;;;4991368;28;20962;-60
2021/04/13 05:43:15;;;;;;;3.67;3.13;;;;;;;;;;5003764;28;20536;-60
2021/04/13 05:45:43;;;;;;;6.00;2.93;;;;;;;;;;4986234;28;20455;-60
2021/04/13 05:48:10;;;;;;;4.80;3.00;;;;;;;;;;4992892;28;21131;-60
2021/04/13 05:50:38;;;;;;;6.30;4.50;;;;;;;;;;5001302;28;20477;-60
2021/04/13 05:53:05;;;;;;;5.00;3.40;;;;;;;;;;4997810;28;20526;-60
2021/04/13 05:55:31;;;;;;;2.77;2.57;;;;;;;;;;4987405;28;20465;-60
2021/04/13 05:58:00;;;;;;;2.30;1.87;;;;;;;;;;5009000;28;20497;-60
2021/04/13 06:00:28;;;;;;;3.20;2.30;;;;;;;;;;4990276;28;20467;-60
2021/04/13 06:02:55;;;;;;;3.43;2.20;;;;;;;;;;4998811;28;20481;-61
2021/04/13 06:05:23;;;;;;;2.70;2.13;;;;;;;;;;5000055;28;20458;-60
2021/04/13 06:07:50;;;;;;;3.57;1.60;;;;;;;;;;4995374;28;20465;-60
2021/04/13 06:10:17;;;;;;;2.30;1.50;;;;;;;;;;4998934;28;20450;-60
2021/04/13 06:12:43;;;;;;;3.57;1.83;;;;;;;;;;4999892;28;21048;-60
2021/04/13 06:15:13;;;;;;;5.87;1.97;;;;;;;;;;4984215;28;20821;-60
2021/04/13 06:17:39;;;;;;;2.93;1.60;;;;;;;;;;5000043;28;20486;-60
2021/04/13 06:20:08;;;;;;;2.53;1.67;;;;;;;;;;4998550;28;20462;-60
2021/04/13 06:22:34;;;;;;;3.53;1.63;;;;;;;;;;5002697;28;20455;-61
2021/04/13 06:25:01;;;;;;;2.70;1.50;;;;;;;;;;4993383;28;20474;-60
2021/04/13 06:27:27;;;;;;;3.60;1.30;;;;;;;;;;5000731;28;20542;-60
2021/04/13 06:29:54;;;;;;;4.30;1.40;;;;;;;;;;4979096;28;20463;-61
2021/04/13 06:32:24;;;;;;;7.30;2.10;;;;;;;;;;4994283;28;20470;-60
2021/04/13 06:34:51;;;;;;;3.07;1.83;;;;;;;;;;4992070;28;20997;-60
2021/04/13 06:37:18;;;;;;;3.43;1.70;;;;;;;;;;4986494;28;20487;-61
2021/04/13 06:39:48;;;;;;;4.37;1.90;;;;;;;;;;4993233;28;20451;-61
2021/04/13 06:42:29;;;;;;;3.67;2.07;;;;;;;;;;4982461;28;20454;-60
2021/04/13 06:45:11;;;;;;;3.67;2.10;;;;;;;;;;4992295;28;20490;-60
2021/04/13 06:47:46;;;;;;;3.27;1.73;;;;;;;;;;4984686;28;20458;-60
2021/04/13 06:50:19;;;;;;;3.03;1.60;;;;;;;;;;4992359;28;20442;-60
2021/04/13 06:52:52;;;;;;;3.87;1.50;;;;;;;;;;4992519;28;20456;-60
2021/04/13 06:55:24;;;;;;;4.27;1.63;;;;;;;;;;4991251;28;20447;-60
2021/04/13 06:57:56;;;;;;;3.90;1.73;;;;;;;;;;4982757;28;20533;-60
2021/04/13 07:00:29;;;;;;;3.20;1.90;;;;;;;;;;4983330;28;20556;-60
2021/04/13 07:03:00;;;;;;;3.67;1.60;;;;;;;;;;4982821;28;20986;-60
2021/04/13 07:05:28;;;;;;;4.40;1.37;;;;;;;;;;4973024;28;20431;-62
2021/04/13 07:07:59;;;;;;;4.20;2.10;;;;;;;;;;4996061;28;20442;-62
2021/04/13 07:10:27;;;;;;;3.10;1.87;;;;;;;;;;4987312;28;20452;-62
2021/04/13 07:13:01;;;;;;;5.70;1.90;;;;;;;;;;4990439;28;20452;-63
2021/04/13 07:15:30;;;;;;;2.57;1.37;;;;;;;;;;4993299;28;20496;-62
2021/04/13 07:18:00;;;;;;;3.43;1.83;;;;;;;;;;4993459;28;20482;-62
2021/04/13 07:20:29;;;;;;;3.57;1.60;;;;;;;;;;5004495;28;20452;-61
2021/04/13 07:22:59;;;;;;;4.33;1.73;;;;;;;;;;4991416;28;21295;-63
2021/04/13 07:25:26;;;;;;;5.30;1.60;;;;;;;;;;4972889;28;20830;-62
2021/04/13 07:27:54;;;;;;;2.97;1.30;;;;;;;;;;4989828;28;20537;-61
2021/04/13 07:30:25;;;;;;;3.43;1.87;;;;;;;;;;4991940;28;20945;-62
2021/04/13 07:32:53;;;;;;;4.47;1.20;;;;;;;;;;4990257;28;20451;-62
2021/04/13 07:35:20;;;;;;;1.63;1.33;;;;;;;;;;4990915;28;20988;-61
2021/04/13 07:37:47;;;;;;;8.90;2.40;;;;;;;;;;4989250;28;21065;-62
2021/04/13 07:40:17;;;;;;;6.83;2.20;;;;;;;;;;4991826;28;20451;-61
2021/04/13 07:42:47;;;;;;;5.00;2.20;;;;;;;;;;4989898;28;20799;-62
2021/04/13 07:45:19;;;;;;;4.30;1.90;;;;;;;;;;4988449;28;20462;-63
2021/04/13 07:48:05;;;;;;;2.67;2.20;;;;;;;;;;4994655;28;20452;-62
2021/04/13 07:50:37;;;;;;;3.23;2.30;;;;;;;;;;5007285;28;20457;-64
2021/04/13 07:53:11;;;;;;;4.50;2.53;;;;;;;;;;5007518;28;20535;-63
2021/04/13 07:55:46;;;;;;;3.30;2.50;;;;;;;;;;5005964;28;20443;-63
2021/04/13 07:58:16;;;;;;;6.13;2.57;;;;;;;;;;5007578;28;20574;-64
2021/04/13 08:00:47;;;;;;;3.83;2.60;;;;;;;;;;4998411;28;20454;-63
2021/04/13 08:03:19;;;;;;;7.90;2.70;;;;;;;;;;4997532;28;20486;-62
2021/04/13 08:05:47;;;;;;;4.90;2.40;;;;;;;;;;4993292;28;20810;-63
2021/04/13 08:08:21;;;;;;;2.83;1.97;;;;;;;;;;4991333;28;20461;-63
2021/04/13 08:10:49;;;;;;;5.97;2.80;;;;;;;;;;4998003;28;20433;-64
2021/04/13 08:13:27;;;;;;;6.00;3.10;;;;;;;;;;4989349;28;20475;-63
2021/04/13 08:15:54;;;;;;;4.60;2.63;;;;;;;;;;4978959;28;20490;-63
2021/04/13 08:18:36;;;;;;;7.13;3.23;;;;;;;;;;4994808;28;20473;-63
2021/04/13 08:21:29;;;;;;;8.03;2.93;;;;;;;;;;4981050;28;21009;-62
2021/04/13 08:23:56;;;;;;;7.30;3.57;;;;;;;;;;4943930;28;20479;-63
2021/04/13 08:26:35;;;;;;;5.30;3.03;;;;;;;;;;4995253;28;20438;-63
2021/04/13 08:29:11;;;;;;;7.93;3.57;;;;;;;;;;4988255;28;20438;-62
2021/04/13 08:34:34;;;;;;;7.70;4.27;;;;;;;;;;4996113;28;20470;-64
2021/04/13 08:37:07;;;;;;;7.23;4.63;;;;;;;;;;4982696;28;20478;-63
2021/04/13 08:39:37;;;;;;;7.50;4.30;;;;;;;;;;4983011;28;20439;-63
2021/04/13 08:42:07;;;;;;;8.83;4.23;;;;;;;;;;4982595;28;20454;-63
2021/04/13 08:44:37;;;;;;;10.27;4.47;;;;;;;;;;4993532;28;20475;-63
2021/04/13 08:47:10;;;;;;;5.93;3.93;;;;;;;;;;4982230;28;20454;-63
2021/04/13 08:49:42;;;;;;;8.40;4.40;;;;;;;;;;4991401;28;20497;-63
2021/04/13 08:52:27;;;;;;;10.20;4.43;;;;;;;;;;4981465;28;20449;-63
2021/04/13 08:55:06;;;;;;;10.57;4.63;;;;;;;;;;4982654;28;20471;-63
2021/04/13 08:57:35;;;;;;;8.37;4.10;;;;;;;;;;5001205;28;20473;-65
2021/04/13 09:00:06;;;;;;;10.73;4.47;;;;;;;;;;4988123;28;20958;-65
2021/04/13 09:02:34;;;;;;;5.80;2.67;;;;;;;;;;4986834;28;20877;-64
2021/04/13 09:05:02;;;;;;;8.90;3.80;;;;;;;;;;4994347;28;20486;-64
2021/04/13 09:07:30;;;;;;;6.80;3.07;;;;;;;;;;4988908;28;20455;-63
2021/04/13 09:10:10;;;;;;;10.57;3.50;;;;;;;;;;4995043;28;20642;-63
2021/04/13 09:12:41;;;;;;;12.37;3.40;;;;;;;;;;4978974;28;20455;-62
2021/04/13 09:15:14;;;;;;;6.20;2.40;;;;;;;;;;4989984;28;20454;-64
2021/04/13 09:17:42;;;;;;;6.60;2.60;;;;;;;;;;4993209;28;20473;-63
2021/04/13 09:20:14;;;;;;;6.80;2.80;;;;;;;;;;4993910;28;20481;-63
2021/04/13 09:22:49;;;;;;;7.97;2.27;;;;;;;;;;4993608;28;20462;-62
2021/04/13 09:25:19;;;;;;;7.30;2.10;;;;;;;;;;4988662;28;20454;-63
2021/04/13 09:27:48;;;;;;;6.50;2.00;;;;;;;;;;4994766;28;20451;-62
2021/04/13 09:30:24;;;;;;;5.20;2.17;;;;;;;;;;4993674;28;20450;-61
2021/04/13 09:32:51;;;;;;;8.10;2.43;;;;;;;;;;4994540;28;20454;-61
2021/04/13 09:35:38;;;;;;;5.40;1.93;;;;;;;;;;4991667;28;20814;-61
2021/04/13 09:38:28;;;;;;;6.00;2.33;;;;;;;;;;4969515;28;20489;-62
2021/04/13 09:41:02;;;;;;;6.50;2.57;;;;;;;;;;4973793;28;20462;-61
2021/04/13 09:43:45;;;;;;;11.93;2.57;;;;;;;;;;4977288;28;20474;-60
2021/04/13 09:46:22;;;;;;;7.47;2.50;;;;;;;;;;4974266;28;20454;-61
2021/04/13 09:49:08;;;;;;;3.97;1.67;;;;;;;;;;4989798;28;20446;-61
2021/04/13 09:51:41;;;;;;;8.40;3.00;;;;;;;;;;4994028;28;20794;-61
2021/04/13 09:54:25;;;;;;;8.03;2.97;;;;;;;;;;4993551;28;20881;-61
2021/04/13 09:56:58;;;;;;;9.10;2.77;;;;;;;;;;4998315;28;20470;-61
2021/04/13 09:59:36;;;;;;;9.63;2.43;;;;;;;;;;4988031;28;20489;-61
2021/04/13 10:02:12;;;;;;;8.60;2.53;;;;;;;;;;4998402;28;20437;-61
2021/04/13 10:04:52;;;;;;;7.40;2.30;;;;;;;;;;4988341;28;21016;-61
2021/04/13 10:07:22;;;;;;;8.00;2.20;;;;;;;;;;4995153;28;20450;-61
2021/04/13 10:09:50;;;;;;;7.30;2.30;;;;;;;;;;4994240;28;20493;-60
2021/04/13 10:12:31;;;;;;;3.87;1.80;;;;;;;;;;4992631;28;20974;-61
2021/04/13 10:15:15;;;;;;;4.73;1.60;;;;;;;;;;4991575;28;20482;-60
2021/04/13 10:17:48;;;;;;;5.73;2.30;;;;;;;;;;4993472;28;20525;-62
2021/04/13 10:20:27;;;;;;;5.03;2.60;;;;;;;;;;4993315;28;20589;-63
2021/04/13 10:23:07;;;;;;;4.83;1.90;;;;;;;;;;4993588;28;20430;-64
2021/04/13 10:25:47;;;;;;;6.60;2.37;;;;;;;;;;4991888;28;20468;-64
2021/04/13 10:28:28;;;;;;;3.20;2.37;;;;;;;;;;4993668;28;20432;-64
2021/04/13 10:31:16;;;;;;;5.60;2.10;;;;;;;;;;4992038;28;20811;-65
2021/04/13 10:34:03;;;;;;;8.07;2.60;;;;;;;;;;4951959;28;20472;-64
2021/04/13 10:36:40;;;;;;;6.37;2.70;;;;;;;;;;4973978;28;20467;-63
2021/04/13 10:39:25;;;;;;;5.40;3.00;;;;;;;;;;4982824;28;20454;-63
2021/04/13 10:42:06;;;;;;;6.00;2.83;;;;;;;;;;4990010;28;20520;-63
2021/04/13 10:44:51;;;;;;;5.27;2.57;;;;;;;;;;4951218;28;20482;-63
2021/04/13 10:47:38;;;;;;;7.83;3.00;;;;;;;;;;4989385;28;20496;-64
2021/04/13 10:50:18;;;;;;;7.07;3.40;;;;;;;;;;4995439;28;20972;-63
2021/04/13 10:53:06;;;;;;;4.80;3.10;;;;;;;;;;4993851;28;20455;-63
2021/04/13 10:55:38;;;;;;;5.50;2.53;;;;;;;;;;4979259;28;20467;-63
2021/04/13 10:58:23;;;;;;;5.13;2.40;;;;;;;;;;4984296;28;20482;-64
2021/04/13 11:01:03;;;;;;;5.63;2.43;;;;;;;;;;4991207;28;20543;-63
2021/04/13 11:03:42;;;;;;;5.40;2.67;;;;;;;;;;4987873;28;20589;-61
2021/04/13 11:06:27;;;;;;;3.63;2.10;;;;;;;;;;4991479;28;20473;-62
2021/04/13 11:09:06;;;;;;;4.90;2.17;;;;;;;;;;4962823;28;20485;-62
2021/04/13 11:11:51;;;;;;;5.27;2.50;;;;;;;;;;4991596;28;20585;-63
2021/04/13 11:14:32;;;;;;;6.33;2.60;;;;;;;;;;4992780;28;20467;-63
2021/04/13 11:17:23;;;;;;;5.43;2.90;;;;;;;;;;4989642;28;20566;-63
2021/04/13 11:20:02;;;;;;;8.27;2.30;;;;;;;;;;4991932;28;20636;-62
2021/04/13 11:22:53;;;;;;;3.80;1.80;;;;;;;;;;4990599;28;20440;-62
2021/04/13 11:25:28;;;;;;;3.27;1.60;;;;;;;;;;4981376;28;20459;-62
2021/04/13 11:28:19;;;;;;;3.87;1.90;;;;;;;;;;4973289;28;20439;-62
2021/04/13 11:31:08;;;;;;;6.20;2.00;;;;;;;;;;4956883;28;20926;-62
2021/04/13 11:33:44;;;;;;;4.30;2.13;;;;;;;;;;4980687;28;20510;-62
2021/04/13 11:36:16;;;;;;;3.77;1.80;;;;;;;;;;4978855;28;20457;-62
2021/04/13 11:38:48;;;;;;;2.30;1.37;;;;;;;;;;4992611;28;20530;-62
2021/04/13 11:41:24;;;;;;;5.10;2.50;;;;;;;;;;4992465;28;20447;-64
2021/04/13 11:43:52;;;;;;;6.20;2.07;;;;;;;;;;4991734;28;20520;-62
2021/04/13 11:46:21;;;;;;;4.10;2.00;;;;;;;;;;4990788;28;20489;-63
2021/04/13 11:48:51;;;;;;;4.53;2.00;;;;;;;;;;4975436;28;20805;-59
2021/04/13 11:51:21;;;;;;;6.47;2.57;;;;;;;;;;4991662;28;20948;-59
2021/04/13 11:53:49;;;;;;;3.73;1.87;;;;;;;;;;4992451;28;20467;-59
2021/04/13 11:56:34;;;;;;;4.60;1.60;;;;;;;;;;5004873;28;20453;-59
2021/04/13 11:59:24;;;;;;;7.13;2.53;;;;;;;;;;4979367;28;20460;-59
2021/04/13 12:01:56;;;;;;;4.50;1.70;;;;;;;;;;4986042;28;20461;-59
2021/04/13 12:04:24;;;;;;;5.73;2.00;;;;;;;;;;5004513;28;20490;-59
2021/04/13 12:06:56;;;;;;;4.73;2.13;;;;;;;;;;4989760;28;20457;-59
2021/04/13 12:09:41;;;;;;;3.47;1.60;;;;;;;;;;4991138;28;20461;-60
2021/04/13 12:12:28;;;;;;;6.07;2.10;;;;;;;;;;4974353;28;20806;-60
2021/04/13 12:14:55;;;;;;;13.50;2.67;;;;;;;;;;4978455;28;20835;-60
2021/04/13 12:17:32;;;;;;;3.80;2.20;;;;;;;;;;4991703;28;20486;-59
2021/04/13 12:20:17;;;;;;;5.37;2.13;;;;;;;;;;4972837;28;20447;-59
2021/04/13 12:22:45;;;;;;;5.83;2.20;;;;;;;;;;4975398;28;20454;-60
2021/04/13 12:25:27;;;;;;;6.87;2.00;;;;;;;;;;4990473;28;20466;-59
2021/04/13 12:28:05;;;;;;;5.17;2.50;;;;;;;;;;4991586;28;20459;-59
2021/04/13 12:30:49;;;;;;;5.20;1.80;;;;;;;;;;4991654;28;20485;-60
2021/04/13 12:33:46;;;;;;;5.80;2.07;;;;;;;;;;4999188;28;21046;-60
2021/04/13 12:36:33;;;;;;;4.90;2.40;;;;;;;;;;4954408;29;20520;-60
2021/04/13 12:39:00;;;;;;;2.87;1.63;;;;;;;;;;4997403;28;20457;-61
2021/04/13 12:41:28;;;;;;;3.30;2.00;;;;;;;;;;5014040;28;20476;-61
2021/04/13 12:43:56;;;;;;;4.03;2.30;;;;;;;;;;5014742;28;20996;-61
2021/04/13 12:46:27;;;;;;;5.50;1.63;;;;;;;;;;5005885;28;20464;-60
2021/04/13 12:48:54;;;;;;;4.20;1.87;;;;;;;;;;4998536;28;20516;-60
2021/04/13 12:51:28;;;;;;;4.63;2.00;;;;;;;;;;4994882;28;20453;-61
2021/04/13 12:54:15;;;;;;;5.80;2.00;;;;;;;;;;4995705;28;20470;-61
2021/04/13 12:56:48;;;;;;;4.27;1.60;;;;;;;;;;4994929;28;20482;-61
2021/04/13 12:59:15;;;;;;;3.33;1.63;;;;;;;;;;4995084;28;20449;-59
2021/04/13 13:01:43;;;;;;;2.60;1.13;;;;;;;;;;5010436;28;20453;-60
2021/04/13 13:04:11;;;;;;;3.00;1.30;;;;;;;;;;5012160;28;21040;-59
2021/04/13 13:06:40;;;;;;;5.23;1.57;;;;;;;;;;4995814;28;20821;-59
2021/04/13 13:09:09;;;;;;;5.10;2.10;;;;;;;;;;4998927;28;20465;-60
2021/04/13 13:11:37;;;;;;;5.27;1.83;;;;;;;;;;4997067;28;20965;-60
2021/04/13 13:14:05;;;;;;;3.27;1.60;;;;;;;;;;4995207;28;20488;-60
2021/04/13 13:16:32;;;;;;;2.60;1.43;;;;;;;;;;4993327;28;20446;-60
2021/04/13 13:18:59;;;;;;;4.40;1.90;;;;;;;;;;4994818;28;20459;-60
2021/04/13 13:21:27;;;;;;;3.13;1.47;;;;;;;;;;4994854;28;20450;-60
2021/04/13 13:23:54;;;;;;;2.63;1.77;;;;;;;;;;4994519;28;20471;-60
2021/04/13 13:26:22;;;;;;;3.17;1.83;;;;;;;;;;4994899;28;20540;-60
2021/04/13 13:28:48;;;;;;;5.33;1.87;;;;;;;;;;4994309;28;20454;-60
2021/04/13 13:31:24;;;;;;;3.57;1.87;;;;;;;;;;4995151;28;20493;-59
2021/04/13 13:33:51;;;;;;;3.60;1.50;;;;;;;;;;4994153;28;20557;-59
2021/04/13 13:36:18;;;;;;;3.73;1.90;;;;;;;;;;4994605;28;20450;-62
2021/04/13 13:38:46;;;;;;;10.23;2.03;;;;;;;;;;4993839;28;21035;-62
2021/04/13 13:41:13;;;;;;;4.87;2.20;;;;;;;;;;4994749;28;20888;-60
2021/04/13 13:43:40;;;;;;;2.40;1.77;;;;;;;;;;4990816;28;21024;-61
2021/04/13 13:46:20;;;;;;;2.63;1.60;;;;;;;;;;4993648;28;20455;-59
2021/04/13 13:48:48;;;;;;;5.47;2.43;;;;;;;;;;4993678;28;20446;-60
2021/04/13 13:51:25;;;;;;;3.07;1.53;;;;;;;;;;4994649;28;20450;-60
2021/04/13 13:53:53;;;;;;;5.87;1.80;;;;;;;;;;4994131;28;20556;-60
2021/04/13 13:56:30;;;;;;;2.63;1.53;;;;;;;;;;4994215;28;20450;-60
2021/04/13 13:59:16;;;;;;;3.80;1.83;;;;;;;;;;4994188;28;20455;-60
2021/04/13 14:01:42;;;;;;;4.97;2.27;;;;;;;;;;4994311;28;20450;-61
2021/04/13 14:04:10;;;;;;;5.53;2.57;;;;;;;;;;4994627;28;20545;-60
2021/04/13 14:06:37;;;;;;;3.07;1.80;;;;;;;;;;4993613;28;20462;-61
2021/04/13 14:09:13;;;;;;;4.93;2.37;;;;;;;;;;4993498;28;20462;-60
2021/04/13 14:11:40;;;;;;;5.50;2.43;;;;;;;;;;4993784;28;20456;-60
2021/04/13 14:14:08;;;;;;;3.73;1.83;;;;;;;;;;4993753;28;20477;-60
2021/04/13 14:16:41;;;;;;;3.00;1.70;;;;;;;;;;4993306;28;20489;-60
2021/04/13 14:19:18;;;;;;;4.90;1.80;;;;;;;;;;4993807;28;20451;-60
2021/04/13 14:21:45;;;;;;;3.80;1.70;;;;;;;;;;4992150;28;20458;-61
2021/04/13 14:24:19;;;;;;;3.03;2.20;;;;;;;;;;4996691;28;20484;-60
2021/04/13 14:26:46;;;;;;;4.03;1.87;;;;;;;;;;5012868;28;20456;-60
2021/04/13 14:29:20;;;;;;;5.10;2.00;;;;;;;;;;5003355;28;20624;-61
2021/04/13 14:31:47;;;;;;;4.37;2.13;;;;;;;;;;5013304;28;20441;-60
2021/04/13 14:34:14;;;;;;;3.90;2.03;;;;;;;;;;5010935;28;20488;-60
2021/04/13 14:36:41;;;;;;;4.80;1.60;;;;;;;;;;4993548;28;20454;-60
2021/04/13 14:39:09;;;;;;;6.27;2.37;;;;;;;;;;4994778;28;20451;-60
2021/04/13 14:41:36;;;;;;;4.13;2.10;;;;;;;;;;5012480;28;20450;-60
2021/04/13 14:44:03;;;;;;;5.33;2.10;;;;;;;;;;5012236;28;21042;-60
2021/04/13 14:46:30;;;;;;;3.30;1.83;;;;;;;;;;4994066;28;20477;-60
2021/04/13 14:48:56;;;;;;;3.10;2.00;;;;;;;;;;5008173;28;20461;-60
2021/04/13 14:51:23;;;;;;;4.13;1.60;;;;;;;;;;5004328;28;20456;-60
2021/04/13 14:53:50;;;;;;;3.03;1.80;;;;;;;;;;4986672;28;20573;-61
2021/04/13 14:56:17;;;;;;;5.53;2.33;;;;;;;;;;4991104;28;20805;-61
2021/04/13 14:58:44;;;;;;;4.10;2.23;;;;;;;;;;4984863;28;20924;-60
2021/04/13 15:01:11;;;;;;;4.70;2.17;;;;;;;;;;4973792;28;20444;-60
2021/04/13 15:03:37;;;;;;;4.27;1.87;;;;;;;;;;4981640;28;20529;-60
2021/04/13 15:06:04;;;;;;;4.27;1.90;;;;;;;;;;4992331;28;20450;-60
2021/04/13 15:08:33;;;;;;;4.30;2.13;;;;;;;;;;4991738;28;20473;-60
2021/04/13 15:11:01;;;;;;;4.57;1.73;;;;;;;;;;4992812;28;20457;-60
2021/04/13 15:13:28;;;;;;;3.70;1.93;;;;;;;;;;4983368;28;20479;-60